Home > Products > Valid Products > TAF

000
FTUS41 KILN 050500
TAFLCK
TAF
KLCK 050521Z 0506/0606 00000KT P6SM FEW045 OVC250
     FM051400 11004KT P6SM FEW050 OVC250
     FM060100 VRB03KT P6SM FEW060 BKN250=



000
FTUS41 KILN 050500
TAFCMH
TAF
KCMH 050521Z 0506/0606 00000KT P6SM FEW045 OVC250
     FM051400 11004KT P6SM FEW050 OVC250
     FM060100 VRB03KT P6SM FEW060 BKN250=



000
FTUS41 KILN 050500
TAFCVG
TAF
KCVG 050521Z 0506/0612 10004KT P6SM FEW045 OVC250
     FM051300 11005KT P6SM SCT050 OVC250
     FM060100 VRB03KT P6SM FEW060 BKN250=



000
FTUS41 KILN 050500
TAFLUK
TAF
KLUK 050521Z 0506/0606 00000KT 5SM BR FEW045 OVC250
     FM050800 00000KT 2SM BR FEW045 OVC250
     FM051300 11004KT P6SM SCT050 OVC250
     FM060100 VRB03KT P6SM FEW060 BKN250=



000
FTUS41 KILN 050500
TAFILN
TAF
KILN 050521Z 0506/0606 00000KT P6SM FEW045 OVC250
     FM050900 00000KT 4SM BR FEW045 OVC250
     FM051300 11004KT P6SM FEW050 OVC250
     FM060100 VRB03KT P6SM FEW060 BKN250=



000
FTUS41 KILN 050500
TAFDAY
TAF
KDAY 050521Z 0506/0606 13005KT P6SM FEW045 OVC250
     FM051400 11004KT P6SM FEW050 OVC250
     FM060100 VRB03KT P6SM FEW060 BKN250=



000
FTUS41 KILN 042300
TAFLUK
TAF
KLUK 042331Z 0500/0524 VRB01KT P6SM BKN250
     FM050700 00000KT 4SM BR BKN250
     FM051300 11004KT P6SM SCT050 BKN250=



000
FTUS41 KILN 042300
TAFILN
TAF
KILN 042331Z 0500/0524 VRB03KT P6SM SCT250
     FM050900 00000KT 4SM BR SKC
     FM051300 11004KT P6SM FEW050 BKN250=



000
FTUS41 KILN 042300
TAFLCK
TAF
KLCK 042331Z 0500/0524 VRB04KT P6SM SCT250
     FM051400 11004KT P6SM FEW050 BKN250=



000
FTUS41 KILN 042300
TAFLUK
TAF
KLUK 042331Z 0500/0524 VRB01KT P6SM BKN250
     FM050700 00000KT 4SM BR BKN250
     FM051300 11004KT P6SM SCT050 BKN250=



000
FTUS41 KILN 042300
TAFCMH
TAF
KCMH 042331Z 0500/0524 VRB04KT P6SM SCT250
     FM051400 11004KT P6SM FEW050 BKN250=



000
FTUS41 KILN 042300
TAFDAY
TAF
KDAY 042331Z 0500/0524 VRB03KT P6SM SCT250
     FM051400 11004KT P6SM FEW050 SCT250=



000
FTUS41 KILN 042300
TAFLCK
TAF
KLCK 042331Z 0500/0524 VRB04KT P6SM SCT250
     FM051400 11004KT P6SM FEW050 BKN250=



000
FTUS41 KILN 042300
TAFILN
TAF
KILN 042331Z 0500/0524 VRB03KT P6SM SCT250
     FM050900 00000KT 4SM BR SKC
     FM051300 11004KT P6SM FEW050 BKN250=



000
FTUS41 KILN 042300
TAFCMH
TAF
KCMH 042331Z 0500/0524 VRB04KT P6SM SCT250
     FM051400 11004KT P6SM FEW050 BKN250=



000
FTUS41 KILN 042300
TAFCVG
TAF
KCVG 042331Z 0500/0606 VRB03KT P6SM BKN250
     FM051300 11005KT P6SM SCT050 BKN250
     FM052300 VRB03KT P6SM FEW060 BKN250=



000
FTUS41 KILN 042300
TAFCVG
TAF
KCVG 042331Z 0500/0606 VRB03KT P6SM BKN250
     FM051300 11005KT P6SM SCT050 BKN250
     FM052300 VRB03KT P6SM FEW060 BKN250=



000
FTUS41 KILN 042300
TAFDAY
TAF
KDAY 042331Z 0500/0524 VRB03KT P6SM SCT250
     FM051400 11004KT P6SM FEW050 SCT250=



000
FTUS41 KILN 041700
TAFILN
TAF
KILN 041720Z 0418/0518 35006KT P6SM SCT050
     FM050000 VRB03KT P6SM FEW040
     FM050300 00000KT 4SM BR SKC
     FM051300 11004KT P6SM SCT050=



000
FTUS41 KILN 041700
TAFLCK
TAF
KLCK 041720Z 0418/0518 VRB04KT P6SM FEW040=



000
FTUS41 KILN 041700
TAFCMH
TAF
KCMH 041720Z 0418/0518 VRB04KT P6SM FEW040=



000
FTUS41 KILN 041700
TAFDAY
TAF
KDAY 041720Z 0418/0518 02007KT P6SM FEW050
     FM050000 VRB03KT P6SM SKC
     FM051300 11004KT P6SM SCT050=



000
FTUS41 KILN 041700
TAFCVG
TAF
KCVG 041720Z 0418/0524 02006KT P6SM SCT050
     FM050000 VRB01KT P6SM FEW040
     FM051300 11005KT P6SM SCT050=



000
FTUS41 KILN 041700
TAFLUK
TAF
KLUK 041720Z 0418/0518 35005KT P6SM SCT060
     FM050000 VRB01KT P6SM FEW040
     FM050300 00000KT 4SM BR SKC
     FM051300 11004KT P6SM SCT050=



000
FTUS41 KILN 041400 AAA
TAFCVG
TAF AMD
KCVG 041456Z 0415/0518 02006KT P6SM SCT050
     FM050000 VRB03KT P6SM SKC
     FM051300 11005KT P6SM SCT040=



000
FTUS41 KILN 041100
TAFDAY
TAF
KDAY 041120Z 0412/0512 35005KT P6SM SCT050
     FM050000 VRB03KT P6SM FEW040=



000
FTUS41 KILN 041100
TAFLUK
TAF
KLUK 041120Z 0412/0512 35005KT P6SM SCT060
     FM050000 VRB03KT P6SM FEW040
     FM050300 00000KT 4SM BR SKC=



000
FTUS41 KILN 041100
TAFCVG
TAF
KCVG 041120Z 0412/0518 35006KT P6SM SCT050
     FM050000 VRB03KT P6SM SKC
     FM051300 11005KT P6SM SCT040=



000
FTUS41 KILN 041100
TAFILN
TAF
KILN 041120Z 0412/0512 00000KT 2SM BR SCT060
     FM041300 35006KT P6SM SCT050
     FM050000 VRB03KT P6SM FEW040
     FM050300 00000KT 4SM BR SKC=



000
FTUS41 KILN 041100
TAFCMH
TAF
KCMH 041120Z 0412/0512 33007KT P6SM SCT050
     FM050000 VRB03KT P6SM FEW040=



000
FTUS41 KILN 041100
TAFLCK
TAF
KLCK 041120Z 0412/0512 33007KT P6SM SCT050
     FM050000 VRB03KT P6SM FEW040=



000
FTUS41 KILN 041000 AAB
TAFCMH
TAF AMD
KCMH 041003Z 0410/0506 34004KT P6SM FEW200
      TEMPO 0410/0412 5SM BR
     FM041300 34005KT P6SM SCT040 BKN120
     FM041800 33007KT P6SM SCT050
     FM050000 VRB03KT P6SM SCT040=



000
FTUS41 KILN 041000 AAB
TAFDAY
TAF AMD
KDAY 041003Z 0410/0506 00000KT P6SM SCT060
     FM041300 35005KT P6SM FEW040 SCT120
     FM041800 32006KT P6SM SCT050
     FM050000 VRB03KT P6SM FEW040=



000
FTUS41 KILN 041000 AAB
TAFLCK
TAF AMD
KLCK 041003Z 0410/0506 34003KT P6SM SKC
     FM041300 34005KT P6SM SCT040 BKN120
     FM041800 32007KT P6SM SCT050
     FM050000 VRB03KT P6SM SCT040
     FM050300 00000KT 4SM BR SKC=



000
FTUS41 KILN 041000 AAA
TAFILN
TAF AMD
KILN 041003Z 0410/0506 00000KT 2SM BR SKC
     FM041300 35005KT P6SM SCT040 BKN120
     FM041800 31006KT P6SM SCT040
     FM050000 VRB03KT P6SM FEW040
     FM050300 00000KT 4SM BR SKC=



000
FTUS41 KILN 041000 AAC
TAFCVG
TAF AMD
KCVG 041003Z 0410/0512 33005KT P6SM OVC060
      TEMPO 0410/0412 3SM BR
     FM041300 01005KT P6SM FEW040 SCT080
     FM041800 32006KT P6SM SCT040
     FM050000 VRB03KT P6SM FEW040=



000
FTUS41 KILN 041000 AAB
TAFLUK
TAF AMD
KLUK 041003Z 0410/0506 07004KT 6SM BR OVC070
      TEMPO 0410/0412 2SM BR
     FM041300 01004KT P6SM FEW040 SCT080
     FM041800 34006KT P6SM SCT040
     FM050000 VRB03KT P6SM FEW040
     FM050300 00000KT 4SM BR SKC=



000
FTUS41 KILN 040800 AAB
TAFCVG
TAF AMD
KCVG 040856Z 0409/0512 36004KT 6SM BR OVC060
      TEMPO 0409/0412 3SM BR
     FM041300 01005KT P6SM FEW040 SCT080
     FM041800 32006KT P6SM SCT040
     FM050000 VRB03KT P6SM FEW040=



000
FTUS41 KILN 040800 AAA
TAFCVG
TAF AMD
KCVG 040806Z 0408/0512 35004KT P6SM OVC060
      TEMPO 0409/0412 2SM BR
     FM041300 01005KT P6SM FEW040 SCT080
     FM041800 32006KT P6SM SCT040
     FM050000 VRB03KT P6SM FEW040=



000
FTUS41 KILN 040800 AAA
TAFCMH
TAF AMD
KCMH 040806Z 0408/0506 00000KT P6SM FEW130 SCT200
      TEMPO 0408/0412 5SM BR
     FM041300 34005KT P6SM SCT040 BKN120
     FM041800 33007KT P6SM SCT050
     FM050000 VRB03KT P6SM SCT040=



000
FTUS41 KILN 040800 AAA
TAFLCK
TAF AMD
KLCK 040806Z 0408/0506 33005KT P6SM BKN070
     FM041300 34005KT P6SM SCT040 BKN120
     FM041800 32007KT P6SM SCT050
     FM050000 VRB03KT P6SM SCT040
     FM050300 00000KT 4SM BR SKC=



000
FTUS41 KILN 040800 AAA
TAFLUK
TAF AMD
KLUK 040806Z 0408/0506 05003KT P6SM OVC070
      TEMPO 0409/0412 2SM BR
     FM041300 01004KT P6SM FEW040 SCT080
     FM041800 34006KT P6SM SCT040
     FM050000 VRB03KT P6SM FEW040
     FM050300 00000KT 4SM BR SKC=



000
FTUS41 KILN 040800 AAB
TAFILN
TAF AMD
KILN 040806Z 0408/0506 35004KT 3SM BR SCT060
     FM041300 35005KT P6SM SCT040 BKN120
     FM041800 31006KT P6SM SCT040
     FM050000 VRB03KT P6SM FEW040
     FM050300 00000KT 4SM BR SKC=



000
FTUS41 KILN 040800 AAA
TAFDAY
TAF AMD
KDAY 040806Z 0408/0506 33003KT P6SM FEW080
     FM041300 35005KT P6SM FEW040 SCT120
     FM041800 32006KT P6SM SCT050
     FM050000 VRB03KT P6SM FEW040=



000
FTUS41 KILN 040500 AAA
TAFILN
TAF AMD
KILN 040545Z 0406/0506 00000KT 2SM BR SCT030 BKN090
     FM041300 35005KT P6SM SCT040 BKN120
     FM041800 31006KT P6SM SCT040
     FM050000 VRB03KT P6SM FEW040
     FM050300 00000KT 4SM BR SKC=



000
FTUS41 KILN 040500
TAFCMH
TAF
KCMH 040528Z 0406/0506 00000KT P6SM OVC120
      TEMPO 0408/0412 5SM BR
     FM041300 34005KT P6SM SCT040 BKN120
     FM041800 33007KT P6SM SCT050
     FM050000 VRB03KT P6SM SCT040=



000
FTUS41 KILN 040500
TAFILN
TAF
KILN 040528Z 0406/0506 00000KT 4SM BR SCT030 BKN090
     FM041300 35005KT P6SM SCT040 BKN120
     FM041800 31006KT P6SM SCT040
     FM050000 VRB03KT P6SM FEW040
     FM050300 00000KT 4SM BR SKC=



000
FTUS41 KILN 040500
TAFLUK
TAF
KLUK 040528Z 0406/0506 00000KT P6SM OVC045
     FM040800 00000KT 4SM BR SCT015 BKN080
      TEMPO 0409/0412 2SM BR
     FM041300 01004KT P6SM FEW040 SCT080
     FM041800 34006KT P6SM SCT040
     FM050000 VRB03KT P6SM FEW040
     FM050300 00000KT 4SM BR SKC=



000
FTUS41 KILN 040500
TAFLCK
TAF
KLCK 040528Z 0406/0506 00000KT 1SM BR SCT009 BKN120
     FM041300 34005KT P6SM SCT040 BKN120
     FM041800 32007KT P6SM SCT050
     FM050000 VRB03KT P6SM SCT040
     FM050300 00000KT 4SM BR SKC=



000
FTUS41 KILN 040500
TAFDAY
TAF
KDAY 040528Z 0406/0506 34005KT 3SM BR VCSH FEW030 SCT090
     FM041300 35005KT P6SM FEW040 SCT120
     FM041800 32006KT P6SM SCT050
     FM050000 VRB03KT P6SM FEW040=



000
FTUS41 KILN 040500
TAFCVG
TAF
KCVG 040528Z 0406/0512 34004KT 4SM BR BKN040
      TEMPO 0409/0412 2SM BR
     FM041300 01005KT P6SM FEW040 SCT080
     FM041800 32006KT P6SM SCT040
     FM050000 VRB03KT P6SM FEW040=



000
FTUS41 KILN 040400 AAA
TAFILN
TAF AMD
KILN 040421Z 0404/0424 33003KT 5SM BR SCT035 BKN100
     FM041300 35005KT P6SM SKC
     FM041800 32006KT P6SM SCT040=



000
FTUS41 KILN 040400 AAA
TAFDAY
TAF AMD
KDAY 040421Z 0404/0424 35004KT 4SM BR VCSH BKN035
     FM041300 35005KT P6SM SKC
     FM041800 32006KT P6SM SCT050=



000
FTUS41 KILN 040400 AAA
TAFLCK
TAF AMD
KLCK 040421Z 0404/0424 00000KT 2SM BR BKN120
     FM041300 34005KT P6SM SKC
     FM041800 32007KT P6SM SCT050=



000
FTUS41 KILN 040400 AAA
TAFILN
TAF AMD
KILN 040421Z 0404/0424 33003KT 5SM BR SCT035 BKN100
     FM041300 35005KT P6SM SKC
     FM041800 32006KT P6SM SCT040=



000
FTUS41 KILN 040400 AAA
TAFLCK
TAF AMD
KLCK 040421Z 0404/0424 00000KT 2SM BR BKN120
     FM041300 34005KT P6SM SKC
     FM041800 32007KT P6SM SCT050=



000
FTUS41 KILN 040400 AAA
TAFDAY
TAF AMD
KDAY 040421Z 0404/0424 35004KT 4SM BR VCSH BKN035
     FM041300 35005KT P6SM SKC
     FM041800 32006KT P6SM SCT050=



000
FTUS41 KILN 032300
TAFLCK
TAF
KLCK 032337Z 0400/0424 06006KT P6SM -SHRA SCT012 BKN040
      TEMPO 0400/0402 -SHRA
     FM040600 35003KT P6SM SCT012 BKN040
      TEMPO 0408/0412 5SM BR
     FM041300 34005KT P6SM SKC
     FM041800 32007KT P6SM SCT050=



000
FTUS41 KILN 032300
TAFCMH
TAF
KCMH 032337Z 0400/0424 04004KT P6SM VCSH SCT012 BKN040
      TEMPO 0400/0402 -SHRA
     FM040600 35003KT P6SM SCT012 BKN040
      TEMPO 0408/0412 5SM BR
     FM041300 34005KT P6SM SKC
     FM041800 33007KT P6SM SCT050=



000
FTUS41 KILN 032300
TAFILN
TAF
KILN 032337Z 0400/0424 03007KT P6SM VCSH SCT012 BKN040
     FM040700 35004KT 4SM BR SCT015 BKN100
     FM041300 35005KT P6SM SKC
     FM041800 32006KT P6SM SCT040=



000
FTUS41 KILN 032300
TAFCVG
TAF
KCVG 032337Z 0400/0506 04006KT P6SM VCSH SCT025 BKN040
     FM040500 01005KT P6SM SCT040 BKN080
     FM040700 36004KT 4SM BR SCT015 BKN080
      TEMPO 0409/0412 2SM BR
     FM041300 01005KT P6SM SCT040
     FM041800 32006KT P6SM SCT040
     FM050000 VRB03KT P6SM SCT040=



000
FTUS41 KILN 032300
TAFDAY
TAF
KDAY 032337Z 0400/0424 02007KT P6SM VCSH SCT015 BKN040
     FM040600 33003KT P6SM SCT015 BKN100
      TEMPO 0408/0412 5SM BR
     FM041300 35005KT P6SM SKC
     FM041800 32006KT P6SM SCT050=



000
FTUS41 KILN 032300
TAFLUK
TAF
KLUK 032337Z 0400/0424 05006KT P6SM VCSH SCT025 BKN040
      TEMPO 0400/0401 -SHRA BKN025
     FM040500 00000KT P6SM SCT040 BKN080
     FM040700 00000KT 4SM BR SCT015 BKN080
      TEMPO 0409/0412 2SM BR
     FM041300 01004KT P6SM SCT040
     FM041800 34006KT P6SM SCT040=



000
FTUS41 KILN 032000 AAA
TAFILN
TAF AMD
KILN 032034Z 0321/0418 06007KT P6SM VCSH BKN040
     FM040200 01005KT P6SM BKN060
      TEMPO 0408/0412 5SM BR
     FM041400 34006KT P6SM SCT040=



000
FTUS41 KILN 032000 AAA
TAFCVG
TAF AMD
KCVG 032033Z 0321/0424 02006KT P6SM VCSH BKN025 OVC040
     FM040200 03005KT P6SM BKN060
     FM040800 01004KT 4SM BR SCT015 BKN060
     FM041500 34007KT P6SM SCT040=



000
FTUS41 KILN 031700
TAFLUK
TAF
KLUK 031730Z 0318/0418 05006KT P6SM VCSH SCT025 BKN040
      TEMPO 0318/0321 OVC025
     FM040200 VRB03KT P6SM BKN060
     FM040800 00000KT 4SM BR SCT018 BKN060
     FM041500 34007KT P6SM SCT040=



000
FTUS41 KILN 031700
TAFDAY
TAF
KDAY 031730Z 0318/0418 06007KT P6SM VCSH BKN040
      TEMPO 0320/0324 5SM -SHRA OVC025
     FM040200 01005KT P6SM BKN060
      TEMPO 0408/0412 5SM BR
     FM041400 35007KT P6SM SCT040=



000
FTUS41 KILN 031700
TAFCMH
TAF
KCMH 031730Z 0318/0418 06007KT P6SM VCSH BKN040
      TEMPO 0318/0322 5SM -SHRA OVC025
     FM040200 02005KT P6SM BKN060
      TEMPO 0408/0412 5SM BR
     FM041400 34006KT P6SM SCT040=



000
FTUS41 KILN 031700
TAFCVG
TAF
KCVG 031730Z 0318/0424 06006KT P6SM VCSH SCT025 BKN040
      TEMPO 0318/0321 OVC015
     FM040200 03005KT P6SM BKN060
     FM040800 01004KT 4SM BR SCT015 BKN060
     FM041500 34007KT P6SM SCT040=



000
FTUS41 KILN 031700
TAFILN
TAF
KILN 031730Z 0318/0418 06007KT P6SM VCSH BKN040
      TEMPO 0318/0322 5SM -SHRA OVC025
     FM040200 01005KT P6SM BKN060
      TEMPO 0408/0412 5SM BR
     FM041400 34006KT P6SM SCT040=



000
FTUS41 KILN 031700
TAFLCK
TAF
KLCK 031730Z 0318/0418 06006KT P6SM VCSH BKN040
      TEMPO 0318/0322 5SM -SHRA OVC025
     FM040200 02005KT P6SM BKN060
      TEMPO 0408/0412 5SM BR
     FM041400 34006KT P6SM SCT040=



000
FTUS41 KILN 031700
TAFCMH
TAF
KCMH 031730Z 0318/0418 06007KT P6SM VCSH BKN040
      TEMPO 0318/0322 5SM -SHRA OVC025
     FM040200 02005KT P6SM BKN060
      TEMPO 0408/0412 5SM BR
     FM041400 34006KT P6SM SCT040=



000
FTUS41 KILN 031700
TAFILN
TAF
KILN 031730Z 0318/0418 06007KT P6SM VCSH BKN040
      TEMPO 0318/0322 5SM -SHRA OVC025
     FM040200 01005KT P6SM BKN060
      TEMPO 0408/0412 5SM BR
     FM041400 34006KT P6SM SCT040=



000
FTUS41 KILN 031700
TAFCVG
TAF
KCVG 031730Z 0318/0424 06006KT P6SM VCSH SCT025 BKN040
      TEMPO 0318/0321 OVC015
     FM040200 03005KT P6SM BKN060
     FM040800 01004KT 4SM BR SCT015 BKN060
     FM041500 34007KT P6SM SCT040=



000
FTUS41 KILN 031700
TAFDAY
TAF
KDAY 031730Z 0318/0418 06007KT P6SM VCSH BKN040
      TEMPO 0320/0324 5SM -SHRA OVC025
     FM040200 01005KT P6SM BKN060
      TEMPO 0408/0412 5SM BR
     FM041400 35007KT P6SM SCT040=



000
FTUS41 KILN 031700
TAFLUK
TAF
KLUK 031730Z 0318/0418 05006KT P6SM VCSH SCT025 BKN040
      TEMPO 0318/0321 OVC025
     FM040200 VRB03KT P6SM BKN060
     FM040800 00000KT 4SM BR SCT018 BKN060
     FM041500 34007KT P6SM SCT040=



000
FTUS41 KILN 031700
TAFLCK
TAF
KLCK 031730Z 0318/0418 06006KT P6SM VCSH BKN040
      TEMPO 0318/0322 5SM -SHRA OVC025
     FM040200 02005KT P6SM BKN060
      TEMPO 0408/0412 5SM BR
     FM041400 34006KT P6SM SCT040=



000
FTUS41 KILN 031700 AAB
TAFLUK
TAF AMD
KLUK 031703Z 0317/0412 04005KT P6SM VCSH BKN035
      TEMPO 0317/0318 BKN028
     FM031800 04008KT P6SM VCSH SCT028 BKN040
     FM040100 01003KT P6SM SCT040
     FM040600 00000KT 4SM BR SCT040=



000
FTUS41 KILN 031600 AAA
TAFILN
TAF AMD
KILN 031600Z 0316/0412 05008KT P6SM VCSH SCT025 OVC040
      TEMPO 0316/0318 OVC025
     FM040100 01004KT P6SM SCT040=



000
FTUS41 KILN 031500 AAB
TAFCVG
TAF AMD
KCVG 031558Z 0316/0418 05005KT P6SM VCSH SCT015 OVC025
      TEMPO 0316/0318 OVC015
     FM031800 04008KT P6SM VCSH SCT025 BKN040
     FM040100 01007KT P6SM SCT040
     FM041300 34007KT P6SM SCT040=



000
FTUS41 KILN 031400 AAA
TAFLUK
TAF AMD
KLUK 031457Z 0315/0412 04005KT P6SM VCSH BKN035
      TEMPO 0315/0316 OVC028
     FM031600 04008KT P6SM VCSH SCT028 BKN040
     FM040100 01003KT P6SM SCT040
     FM040600 00000KT 4SM BR SCT040=



000
FTUS41 KILN 031400 AAA
TAFCVG
TAF AMD
KCVG 031456Z 0315/0418 03005KT P6SM VCSH SCT012 BKN035 OVC045
      TEMPO 0315/0316 5SM BR OVC025
     FM031600 04008KT P6SM VCSH SCT025 BKN040
     FM040100 01007KT P6SM SCT040
     FM041300 34007KT P6SM SCT040=



000
FTUS41 KILN 031100
TAFLUK
TAF
KLUK 031120Z 0312/0412 04005KT P6SM VCSH BKN029 BKN045 OVC060
      TEMPO 0312/0316 5SM -RA BR OVC014
     FM031600 04008KT P6SM VCSH SCT028 BKN040
     FM040100 01003KT P6SM SCT040
     FM040600 00000KT 4SM BR SCT040=



000
FTUS41 KILN 031100
TAFCMH
TAF
KCMH 031120Z 0312/0412 07009KT P6SM FEW140 OVC250
     FM031500 06008KT P6SM BKN040
     FM032100 05008KT P6SM VCSH SCT025 BKN040
     FM040100 01006KT P6SM SCT040=



000
FTUS41 KILN 031100
TAFCVG
TAF
KCVG 031120Z 0312/0418 03005KT P6SM VCSH SCT012 BKN035 OVC045
      TEMPO 0312/0316 4SM -RA BR OVC012
     FM031600 04008KT P6SM VCSH SCT025 BKN040
     FM040100 01007KT P6SM SCT040
     FM041300 34007KT P6SM SCT040=



000
FTUS41 KILN 031100
TAFDAY
TAF
KDAY 031120Z 0312/0412 05005KT P6SM VCSH FEW040 SCT070 BKN230
     FM031800 04008KT P6SM VCSH SCT025 BKN040
     FM040100 01005KT P6SM SCT040=



000
FTUS41 KILN 031100
TAFILN
TAF
KILN 031120Z 0312/0412 06005KT P6SM VCSH BKN070 OVC090
     FM031400 04008KT P6SM VCSH SCT025 OVC040
      TEMPO 0314/0318 5SM -RA BR OVC025
     FM040100 01004KT P6SM SCT040=



000
FTUS41 KILN 031100
TAFCMH
TAF
KCMH 031120Z 0312/0412 07009KT P6SM FEW140 OVC250
     FM031500 06008KT P6SM BKN040
     FM032100 05008KT P6SM VCSH SCT025 BKN040
     FM040100 01006KT P6SM SCT040=



000
FTUS41 KILN 031100
TAFLUK
TAF
KLUK 031120Z 0312/0412 04005KT P6SM VCSH BKN029 BKN045 OVC060
      TEMPO 0312/0316 5SM -RA BR OVC014
     FM031600 04008KT P6SM VCSH SCT028 BKN040
     FM040100 01003KT P6SM SCT040
     FM040600 00000KT 4SM BR SCT040=



000
FTUS41 KILN 031100
TAFLCK
TAF
KLCK 031120Z 0312/0412 06006KT P6SM FEW140 OVC250
     FM031500 06008KT P6SM BKN040
     FM032100 05008KT P6SM VCSH SCT025 BKN040
     FM040100 01005KT P6SM SCT040=



000
FTUS41 KILN 031100
TAFCVG
TAF
KCVG 031120Z 0312/0418 03005KT P6SM VCSH SCT012 BKN035 OVC045
      TEMPO 0312/0316 4SM -RA BR OVC012
     FM031600 04008KT P6SM VCSH SCT025 BKN040
     FM040100 01007KT P6SM SCT040
     FM041300 34007KT P6SM SCT040=



000
FTUS41 KILN 031100
TAFLCK
TAF
KLCK 031120Z 0312/0412 06006KT P6SM FEW140 OVC250
     FM031500 06008KT P6SM BKN040
     FM032100 05008KT P6SM VCSH SCT025 BKN040
     FM040100 01005KT P6SM SCT040=



000
FTUS41 KILN 031100
TAFDAY
TAF
KDAY 031120Z 0312/0412 05005KT P6SM VCSH FEW040 SCT070 BKN230
     FM031800 04008KT P6SM VCSH SCT025 BKN040
     FM040100 01005KT P6SM SCT040=



000
FTUS41 KILN 031100
TAFILN
TAF
KILN 031120Z 0312/0412 06005KT P6SM VCSH BKN070 OVC090
     FM031400 04008KT P6SM VCSH SCT025 OVC040
      TEMPO 0314/0318 5SM -RA BR OVC025
     FM040100 01004KT P6SM SCT040=



000
FTUS41 KILN 030900 AAD
TAFCVG
TAF AMD
KCVG 030935Z 0310/0412 05008KT 6SM BR VCSH BKN012 OVC027
     FM031400 06007KT P6SM -SHRA BKN025 OVC040
     FM031800 04008KT P6SM VCSH BKN040
     FM040100 01007KT P6SM SCT040=



000
FTUS41 KILN 030900 AAC
TAFCVG
TAF AMD
KCVG 030930Z 0310/0412 06007KT 6SM BR VCSH FEW011 BKN027 OVC035
     FM031400 06007KT P6SM -SHRA BKN025 OVC040
     FM031800 04008KT P6SM VCSH BKN040
     FM040100 01007KT P6SM SCT040=



000
FTUS41 KILN 030900 AAB
TAFCVG
TAF AMD
KCVG 030900Z 0309/0412 06007KT 6SM BR VCSH OVC060
     FM031400 06007KT P6SM -SHRA BKN025 OVC040
     FM031800 04008KT P6SM VCSH BKN040
     FM040100 01007KT P6SM SCT040=



000
FTUS41 KILN 030900 AAA
TAFLCK
TAF AMD
KLCK 030900Z 0309/0406 06006KT P6SM SCT080 BKN140
     FM031500 06008KT P6SM BKN040
     FM032100 05008KT P6SM VCSH BKN040
     FM040100 01005KT P6SM SCT040=



000
FTUS41 KILN 030900 AAA
TAFDAY
TAF AMD
KDAY 030900Z 0309/0406 08006KT P6SM BKN080
     FM031500 06008KT P6SM BKN040
     FM031800 04008KT P6SM VCSH BKN040
     FM040100 01005KT P6SM SCT040=



000
FTUS41 KILN 030900 AAA
TAFLUK
TAF AMD
KLUK 030900Z 0309/0406 03005KT P6SM VCSH SCT080 OVC100
     FM031400 06007KT P6SM -SHRA BKN025 OVC040
     FM031800 04008KT P6SM VCSH BKN040
     FM040100 01003KT P6SM SCT040=



000
FTUS41 KILN 030900 AAA
TAFILN
TAF AMD
KILN 030900Z 0309/0406 06007KT P6SM OVC070
     FM031200 06008KT P6SM BKN040
     FM031900 04008KT P6SM VCSH BKN040
     FM040100 01004KT P6SM SCT040=



000
FTUS41 KILN 030900 AAA
TAFCMH
TAF AMD
KCMH 030900Z 0309/0406 07005KT P6SM SCT080 BKN140
     FM031500 06008KT P6SM BKN040
     FM032100 05008KT P6SM VCSH BKN040
     FM040100 01006KT P6SM SCT040=



000
FTUS41 KILN 030700 AAA
TAFCVG
TAF AMD
KCVG 030758Z 0308/0412 08010KT P6SM VCSH OVC060
     FM031400 06007KT P6SM VCSH BKN025 OVC040
     FM031800 04008KT P6SM VCSH BKN040
     FM040100 01007KT P6SM SCT040=



000
FTUS41 KILN 030700 AAA
TAFCVG
TAF AMD
KCVG 030758Z 0308/0412 08010KT P6SM VCSH OVC060
     FM031400 06007KT P6SM VCSH BKN025 OVC040
     FM031800 04008KT P6SM VCSH BKN040
     FM040100 01007KT P6SM SCT040=



000
FTUS41 KILN 030700 AAB
TAFILN
TAF AMD
KILN 030700Z 0307/0406 06007KT 6SM BR BKN090
     FM031200 06008KT P6SM BKN040
     FM031900 04008KT P6SM VCSH BKN040
     FM040100 01004KT P6SM SCT040=



000
FTUS41 KILN 030600 AAA
TAFILN
TAF AMD
KILN 030604Z 0306/0406 06008KT 4SM BR BKN050
     FM031200 06008KT P6SM BKN040
     FM031900 04008KT P6SM VCSH BKN040
     FM040100 01004KT P6SM SCT040=



000
FTUS41 KILN 030600 AAA
TAFILN
TAF AMD
KILN 030604Z 0306/0406 06008KT 4SM BR BKN050
     FM031200 06008KT P6SM BKN040
     FM031900 04008KT P6SM VCSH BKN040
     FM040100 01004KT P6SM SCT040=



000
FTUS41 KILN 030500
TAFCVG
TAF
KCVG 030533Z 0306/0412 06007KT 5SM BR SCT080 OVC250
     FM030800 07007KT 2SM BR OVC012
     FM031400 06007KT 5SM BR VCSH BKN025 OVC040
     FM031800 04008KT P6SM VCSH BKN040
     FM040100 01007KT P6SM SCT040=



000
FTUS41 KILN 030500
TAFDAY
TAF
KDAY 030533Z 0306/0406 06009KT P6SM BKN070
     FM031500 06008KT P6SM BKN040
     FM031800 04008KT P6SM VCSH BKN040
     FM040100 01005KT P6SM SCT040=



000
FTUS41 KILN 030500
TAFLUK
TAF
KLUK 030533Z 0306/0406 04004KT P6SM OVC070
     FM030800 07007KT 2SM BR OVC015
     FM031400 06007KT 5SM BR VCSH BKN025 OVC040
     FM031800 04008KT P6SM VCSH BKN040
     FM040100 01003KT P6SM SCT040=



000
FTUS41 KILN 030500
TAFLCK
TAF
KLCK 030533Z 0306/0406 04007KT P6SM BKN140
     FM031500 06008KT P6SM BKN040
     FM032100 05008KT P6SM VCSH BKN040
     FM040100 01005KT P6SM SCT040=



000
FTUS41 KILN 030500
TAFILN
TAF
KILN 030533Z 0306/0406 06006KT P6SM OVC050
     FM030800 06008KT 4SM BR BKN060
     FM031200 06008KT P6SM BKN040
     FM031900 04008KT P6SM VCSH BKN040
     FM040100 01004KT P6SM SCT040=



000
FTUS41 KILN 030500
TAFCMH
TAF
KCMH 030533Z 0306/0406 06006KT P6SM BKN140
     FM031500 06008KT P6SM BKN040
     FM032100 05008KT P6SM VCSH BKN040
     FM040100 01006KT P6SM SCT040=



000
FTUS41 KILN 030000 AAA
TAFCVG
TAF AMD
KCVG 030051Z 0301/0406 11005KT P6SM VCSH BKN040
      TEMPO 0301/0302 2SM -SHRA BR OVC025
     FM030300 09008KT 5SM BR SCT025 BKN050
     FM030800 07007KT 2SM BR OVC012
     FM031400 06007KT 5SM BR VCSH BKN025 OVC040
     FM031800 04008KT P6SM VCSH BKN040=



000
FTUS41 KILN 030000 AAA
TAFCVG
TAF AMD
KCVG 030051Z 0301/0406 11005KT P6SM VCSH BKN040
      TEMPO 0301/0302 2SM -SHRA BR OVC025
     FM030300 09008KT 5SM BR SCT025 BKN050
     FM030800 07007KT 2SM BR OVC012
     FM031400 06007KT 5SM BR VCSH BKN025 OVC040
     FM031800 04008KT P6SM VCSH BKN040=



000
FTUS41 KILN 022300
TAFDAY
TAF
KDAY 022320Z 0300/0324 07008KT P6SM BKN040
     FM031500 06008KT P6SM BKN040
     FM031800 04008KT P6SM VCSH BKN040=



000
FTUS41 KILN 022300
TAFLUK
TAF
KLUK 022320Z 0300/0324 09005KT P6SM VCSH BKN040
      TEMPO 0300/0302 5SM -SHRA BR OVC025
     FM030300 09007KT 5SM BR SCT025 BKN050
     FM030800 07007KT 2SM BR OVC015
     FM031400 06007KT 5SM BR VCSH BKN025 OVC040
     FM031800 04008KT P6SM VCSH BKN040=



000
FTUS41 KILN 022300
TAFILN
TAF
KILN 022320Z 0300/0324 07006KT P6SM BKN070
     FM030800 06008KT 4SM BR BKN060
     FM031200 06008KT P6SM BKN040
     FM031900 04008KT P6SM VCSH BKN040=



000
FTUS41 KILN 022300
TAFLCK
TAF
KLCK 022320Z 0300/0324 07006KT P6SM BKN040
     FM031500 06008KT P6SM BKN040
     FM032100 05008KT P6SM VCSH BKN040=



000
FTUS41 KILN 022300
TAFCMH
TAF
KCMH 022320Z 0300/0324 07006KT P6SM BKN040
     FM031500 06008KT P6SM BKN040
     FM032100 05008KT P6SM VCSH BKN040=



000
FTUS41 KILN 022300
TAFCVG
TAF
KCVG 022320Z 0300/0406 11005KT P6SM VCSH BKN040
      TEMPO 0300/0302 5SM -SHRA BR OVC025
     FM030300 09008KT 5SM BR SCT025 BKN050
     FM030800 07007KT 2SM BR OVC012
     FM031400 06007KT 5SM BR VCSH BKN025 OVC040
     FM031800 04008KT P6SM VCSH BKN040=



000
FTUS41 KILN 022000 AAB
TAFCVG
TAF AMD
KCVG 022056Z 0221/0324 13005KT P6SM VCTS BKN035CB
      TEMPO 0221/0222 3SM -SHRA BR OVC025
     FM022200 11005KT P6SM VCSH BKN040
      TEMPO 0222/0302 5SM -SHRA BR OVC025
     FM030300 05008KT 5SM BR VCSH SCT025 BKN050
     FM030800 05007KT 2SM BR OVC012
     FM031500 03007KT 5SM BR VCSH BKN025 OVC040=



000
FTUS41 KILN 022000 AAB
TAFCVG
TAF AMD
KCVG 022056Z 0221/0324 13005KT P6SM VCTS BKN035CB
      TEMPO 0221/0222 3SM -SHRA BR OVC025
     FM022200 11005KT P6SM VCSH BKN040
      TEMPO 0222/0302 5SM -SHRA BR OVC025
     FM030300 05008KT 5SM BR VCSH SCT025 BKN050
     FM030800 05007KT 2SM BR OVC012
     FM031500 03007KT 5SM BR VCSH BKN025 OVC040=



000
FTUS41 KILN 021800 AAA
TAFILN
TAF AMD
KILN 021856Z 0219/0318 08006KT 5SM BR VCSH OVC040
      TEMPO 0219/0221 BKN015
     FM022100 08006KT P6SM VCSH BKN040
     FM030300 05008KT P6SM BKN060
     FM030800 06008KT 4SM BR BKN060
     FM031500 06008KT P6SM BKN040=



000
FTUS41 KILN 021800 AAA
TAFLUK
TAF AMD
KLUK 021823Z 0218/0318 11005KT P6SM VCTS BKN040CB
      TEMPO 0218/0222 3SM -SHRA BR OVC025
     FM022200 09005KT P6SM VCSH BKN040
      TEMPO 0222/0302 5SM -SHRA BR OVC025
     FM030300 04007KT 5SM BR VCSH SCT025 BKN050
     FM030800 04007KT 2SM BR OVC015
     FM031500 03007KT 5SM BR VCSH BKN025 OVC040=



000
FTUS41 KILN 021800 AAA
TAFCVG
TAF AMD
KCVG 021823Z 0218/0324 13005KT P6SM VCTS BKN035CB
      TEMPO 0218/0222 3SM -SHRA BR OVC025
     FM022200 11005KT P6SM VCSH BKN040
      TEMPO 0222/0302 5SM -SHRA BR OVC025
     FM030300 05008KT 5SM BR VCSH SCT025 BKN050
     FM030800 05007KT 2SM BR OVC012
     FM031500 03007KT 5SM BR VCSH BKN025 OVC040=



000
FTUS41 KILN 021700
TAFCMH
TAF
KCMH 021727Z 0218/0318 07006KT P6SM VCSH BKN040
     FM030100 05008KT P6SM BKN060
     FM031500 06008KT P6SM BKN040=



000
FTUS41 KILN 021700
TAFLCK
TAF
KLCK 021727Z 0218/0318 07006KT P6SM VCSH BKN040
     FM030100 05008KT P6SM BKN060
     FM031500 06008KT P6SM BKN040
      AMD NOT SKED=



000
FTUS41 KILN 021700
TAFLUK
TAF
KLUK 021727Z 0218/0318 11005KT P6SM VCSH BKN040
      TEMPO 0218/0222 3SM -SHRA BR OVC025
     FM022200 09005KT P6SM VCSH BKN040
      TEMPO 0222/0302 5SM -SHRA BR OVC025
     FM030300 04007KT 5SM BR VCSH SCT025 BKN050
     FM030800 04007KT 2SM BR OVC015
     FM031500 03007KT 5SM BR VCSH BKN025 OVC040=



000
FTUS41 KILN 021700
TAFILN
TAF
KILN 021727Z 0218/0318 08006KT 4SM BR VCSH OVC040
      TEMPO 0218/0219 BKN008
     FM022000 08006KT P6SM VCSH BKN040
     FM030300 05008KT P6SM BKN060
     FM030800 06008KT 4SM BR BKN060
     FM031500 06008KT P6SM BKN040=



000
FTUS41 KILN 021700
TAFCVG
TAF
KCVG 021727Z 0218/0324 13005KT P6SM VCSH BKN035
      TEMPO 0218/0222 3SM -SHRA BR OVC025
     FM022200 11005KT P6SM VCSH BKN040
      TEMPO 0222/0302 5SM -SHRA BR OVC025
     FM030300 05008KT 5SM BR VCSH SCT025 BKN050
     FM030800 05007KT 2SM BR OVC012
     FM031500 03007KT 5SM BR VCSH BKN025 OVC040=



000
FTUS41 KILN 021700
TAFDAY
TAF
KDAY 021727Z 0218/0318 07008KT P6SM VCSH BKN040
     FM030300 04008KT P6SM BKN060
     FM031600 05008KT P6SM BKN040=



000
FTUS41 KILN 021700
TAFDAY
TAF
KDAY 021727Z 0218/0318 07008KT P6SM VCSH BKN040
     FM030300 04008KT P6SM BKN060
     FM031600 05008KT P6SM BKN040=



000
FTUS41 KILN 021700
TAFLUK
TAF
KLUK 021727Z 0218/0318 11005KT P6SM VCSH BKN040
      TEMPO 0218/0222 3SM -SHRA BR OVC025
     FM022200 09005KT P6SM VCSH BKN040
      TEMPO 0222/0302 5SM -SHRA BR OVC025
     FM030300 04007KT 5SM BR VCSH SCT025 BKN050
     FM030800 04007KT 2SM BR OVC015
     FM031500 03007KT 5SM BR VCSH BKN025 OVC040=



000
FTUS41 KILN 021700
TAFILN
TAF
KILN 021727Z 0218/0318 08006KT 4SM BR VCSH OVC040
      TEMPO 0218/0219 BKN008
     FM022000 08006KT P6SM VCSH BKN040
     FM030300 05008KT P6SM BKN060
     FM030800 06008KT 4SM BR BKN060
     FM031500 06008KT P6SM BKN040=



000
FTUS41 KILN 021700
TAFCVG
TAF
KCVG 021727Z 0218/0324 13005KT P6SM VCSH BKN035
      TEMPO 0218/0222 3SM -SHRA BR OVC025
     FM022200 11005KT P6SM VCSH BKN040
      TEMPO 0222/0302 5SM -SHRA BR OVC025
     FM030300 05008KT 5SM BR VCSH SCT025 BKN050
     FM030800 05007KT 2SM BR OVC012
     FM031500 03007KT 5SM BR VCSH BKN025 OVC040=



000
FTUS41 KILN 021700
TAFLCK
TAF
KLCK 021727Z 0218/0318 07006KT P6SM VCSH BKN040
     FM030100 05008KT P6SM BKN060
     FM031500 06008KT P6SM BKN040
      AMD NOT SKED=



000
FTUS41 KILN 021700
TAFCMH
TAF
KCMH 021727Z 0218/0318 07006KT P6SM VCSH BKN040
     FM030100 05008KT P6SM BKN060
     FM031500 06008KT P6SM BKN040=



000
FTUS41 KILN 021500 AAD
TAFCVG
TAF AMD
KCVG 021502Z 0215/0318 14005KT 5SM -SHRA BR OVC025
      TEMPO 0215/0218 2SM -SHRA OVC015
     FM022000 10005KT P6SM VCSH BKN025 OVC040
      TEMPO 0220/0224 5SM -SHRA BR
     FM030000 07006KT P6SM VCSH SCT025 OVC050
     FM030300 03008KT P6SM VCSH SCT025 BKN050=



000
FTUS41 KILN 021400 AAA
TAFILN
TAF AMD
KILN 021436Z 0215/0312 VRB04KT 5SM BR VCSH OVC025
      TEMPO 0215/0217 2SM BR OVC004
     FM021700 10006KT P6SM -SHRA SCT025 OVC040
     FM022000 07006KT P6SM VCSH SCT025 OVC040
     FM030000 05009KT P6SM VCSH SCT025 OVC050
     FM030300 02009KT P6SM SCT040 BKN060=



000
FTUS41 KILN 021400 AAB
TAFLUK
TAF AMD
KLUK 021414Z 0214/0312 VRB03KT P6SM OVC006
      TEMPO 0214/0216 5SM -SHRA OVC015
     FM021600 13004KT 5SM -SHRA BR OVC025
      TEMPO 0216/0220 2SM -SHRA OVC015
     FM022000 10005KT P6SM VCSH BKN028 OVC040
      TEMPO 0220/0224 5SM -SHRA BR
     FM030000 07006KT P6SM VCSH SCT028 OVC050
     FM030300 03008KT P6SM VCSH SCT028 BKN050=



000
FTUS41 KILN 021300 AAC
TAFCVG
TAF AMD
KCVG 021355Z 0214/0318 14005KT 5SM -SHRA BR OVC025
      TEMPO 0214/0218 2SM -SHRA OVC015
     FM022000 10005KT P6SM VCSH BKN025 OVC040
      TEMPO 0220/0224 5SM -SHRA BR
     FM030000 07006KT P6SM VCSH SCT025 OVC050
     FM030300 03008KT P6SM VCSH SCT025 BKN050=



000
FTUS41 KILN 021300 AAC
TAFCVG
TAF AMD
KCVG 021355Z 0214/0318 14005KT 5SM -SHRA BR OVC025
      TEMPO 0214/0218 2SM -SHRA OVC015
     FM022000 10005KT P6SM VCSH BKN025 OVC040
      TEMPO 0220/0224 5SM -SHRA BR
     FM030000 07006KT P6SM VCSH SCT025 OVC050
     FM030300 03008KT P6SM VCSH SCT025 BKN050=



000
FTUS41 KILN 021300 AAB
TAFCVG
TAF AMD
KCVG 021314Z 0213/0318 VRB04KT 5SM -SHRA BR OVC040
      TEMPO 0213/0214 2SM -SHRA BR OVC009
     FM021400 13005KT 5SM -SHRA BR BKN025 OVC040
     FM022000 10005KT P6SM VCSH BKN025 OVC040
      TEMPO 0220/0224 5SM -SHRA BR
     FM030000 07006KT P6SM VCSH SCT025 OVC050
     FM030300 03008KT P6SM VCSH SCT025 BKN050=



000
FTUS41 KILN 021300 AAB
TAFCVG
TAF AMD
KCVG 021314Z 0213/0318 VRB04KT 5SM -SHRA BR OVC040
      TEMPO 0213/0214 2SM -SHRA BR OVC009
     FM021400 13005KT 5SM -SHRA BR BKN025 OVC040
     FM022000 10005KT P6SM VCSH BKN025 OVC040
      TEMPO 0220/0224 5SM -SHRA BR
     FM030000 07006KT P6SM VCSH SCT025 OVC050
     FM030300 03008KT P6SM VCSH SCT025 BKN050=



000
FTUS41 KILN 021200 AAA
TAFLUK
TAF AMD
KLUK 021244Z 0213/0312 VRB04KT 5SM BR VCSH SCT040 OVC060
      TEMPO 0213/0214 BKN007
     FM021400 13005KT 5SM -SHRA BR BKN028 OVC045
     FM022000 10005KT P6SM VCSH BKN028 OVC040
      TEMPO 0220/0224 5SM -SHRA BR
     FM030000 07006KT P6SM VCSH SCT028 OVC050
     FM030300 03008KT P6SM VCSH SCT028 BKN050=



000
FTUS41 KILN 021200 AAA
TAFLUK
TAF AMD
KLUK 021244Z 0213/0312 VRB04KT 5SM BR VCSH SCT040 OVC060
      TEMPO 0213/0214 BKN007
     FM021400 13005KT 5SM -SHRA BR BKN028 OVC045
     FM022000 10005KT P6SM VCSH BKN028 OVC040
      TEMPO 0220/0224 5SM -SHRA BR
     FM030000 07006KT P6SM VCSH SCT028 OVC050
     FM030300 03008KT P6SM VCSH SCT028 BKN050=



000
FTUS41 KILN 021200 AAA
TAFCVG
TAF AMD
KCVG 021215Z 0212/0318 VRB04KT 5SM -SHRA BR OVC040
      TEMPO 0212/0214 2SM -SHRA BR OVC015
     FM021400 13005KT 5SM -SHRA BR BKN025 OVC040
     FM022000 10005KT P6SM VCSH BKN025 OVC040
      TEMPO 0220/0224 5SM -SHRA BR
     FM030000 07006KT P6SM VCSH SCT025 OVC050
     FM030300 03008KT P6SM VCSH SCT025 BKN050=



000
FTUS41 KILN 021200 AAA
TAFCVG
TAF AMD
KCVG 021215Z 0212/0318 VRB04KT 5SM -SHRA BR OVC040
      TEMPO 0212/0214 2SM -SHRA BR OVC015
     FM021400 13005KT 5SM -SHRA BR BKN025 OVC040
     FM022000 10005KT P6SM VCSH BKN025 OVC040
      TEMPO 0220/0224 5SM -SHRA BR
     FM030000 07006KT P6SM VCSH SCT025 OVC050
     FM030300 03008KT P6SM VCSH SCT025 BKN050=



000
FTUS41 KILN 021100
TAFLUK
TAF
KLUK 021124Z 0212/0312 VRB04KT 5SM BR VCSH SCT040 OVC060
     FM021400 13005KT 5SM -SHRA BR BKN028 OVC045
     FM022000 10005KT P6SM VCSH BKN028 OVC040
      TEMPO 0220/0224 5SM -SHRA BR
     FM030000 07006KT P6SM VCSH SCT028 OVC050
     FM030300 03008KT P6SM VCSH SCT028 BKN050=



000
FTUS41 KILN 021100
TAFILN
TAF
KILN 021124Z 0212/0312 VRB04KT 5SM BR VCSH SCT040 BKN060
     FM021600 10006KT P6SM -SHRA SCT025 OVC040
     FM022000 07006KT P6SM VCSH SCT025 OVC040
     FM030000 05009KT P6SM VCSH SCT025 OVC050
     FM030300 02009KT P6SM SCT040 BKN060=



000
FTUS41 KILN 021100
TAFCMH
TAF
KCMH 021124Z 0212/0312 VRB04KT P6SM SCT040 BKN060
     FM021800 07006KT P6SM VCSH SCT040 OVC060
     FM030000 03009KT P6SM BKN060=



000
FTUS41 KILN 021100
TAFDAY
TAF
KDAY 021124Z 0212/0312 08005KT P6SM VCSH OVC040
     FM030000 05009KT P6SM SCT040 BKN060
     FM030300 02009KT P6SM SCT040 BKN060=



000
FTUS41 KILN 021100
TAFLCK
TAF
KLCK 021124Z 0212/0312 VRB04KT P6SM SCT040 BKN060
     FM021800 07006KT P6SM VCSH SCT040 OVC060
     FM030000 03009KT P6SM BKN060
      AMD NOT SKED=



000
FTUS41 KILN 021100
TAFCVG
TAF
KCVG 021124Z 0212/0318 VRB04KT 5SM -SHRA BR OVC040
     FM021400 13005KT 5SM -SHRA BR BKN025 OVC040
     FM022000 10005KT P6SM VCSH BKN025 OVC040
      TEMPO 0220/0224 5SM -SHRA BR
     FM030000 07006KT P6SM VCSH SCT025 OVC050
     FM030300 03008KT P6SM VCSH SCT025 BKN050=



000
FTUS41 KILN 020800 AAB
TAFLCK
TAF AMD
KLCK 020836Z 0209/0306 04004KT P6SM SCT040 BKN060
     FM021200 09005KT P6SM SCT040 BKN060
     FM021500 09006KT P6SM VCSH SCT040 OVC060
     FM030300 06008KT P6SM SCT040 BKN060
      AMD NOT SKED=



000
FTUS41 KILN 020800 AAA
TAFCVG
TAF AMD
KCVG 020809Z 0208/0312 VRB03KT 5SM BR SCT040 OVC060
     FM021200 12005KT 5SM BR VCSH OVC040
     FM021500 13005KT 5SM -SHRA BR BKN025 OVC040
     FM030000 10005KT P6SM VCSH OVC025
     FM030600 06008KT 4SM BR OVC015=



000
FTUS41 KILN 020800 AAA
TAFCMH
TAF AMD
KCMH 020809Z 0208/0306 04004KT P6SM SCT040 BKN060
     FM021200 09005KT P6SM SCT040 BKN060
     FM021500 09006KT P6SM VCSH SCT040 OVC060
     FM030300 06008KT P6SM SCT040 BKN060=



000
FTUS41 KILN 020800 AAA
TAFLCK
TAF AMD
KLCK 020809Z 0208/0306 04004KT P6SM SCT040 BKN060
     FM021200 09005KT P6SM SCT040 BKN060
     FM021500 09006KT P6SM VCSH SCT040 OVC060
     FM030300 06008KT P6SM SCT040 BKN060=



000
FTUS41 KILN 020800 AAA
TAFCVG
TAF AMD
KCVG 020809Z 0208/0312 VRB03KT 5SM BR SCT040 OVC060
     FM021200 12005KT 5SM BR VCSH OVC040
     FM021500 13005KT 5SM -SHRA BR BKN025 OVC040
     FM030000 10005KT P6SM VCSH OVC025
     FM030600 06008KT 4SM BR OVC015=



000
FTUS41 KILN 020800 AAA
TAFCMH
TAF AMD
KCMH 020809Z 0208/0306 04004KT P6SM SCT040 BKN060
     FM021200 09005KT P6SM SCT040 BKN060
     FM021500 09006KT P6SM VCSH SCT040 OVC060
     FM030300 06008KT P6SM SCT040 BKN060=



000
FTUS41 KILN 020800 AAA
TAFLCK
TAF AMD
KLCK 020809Z 0208/0306 04004KT P6SM SCT040 BKN060
     FM021200 09005KT P6SM SCT040 BKN060
     FM021500 09006KT P6SM VCSH SCT040 OVC060
     FM030300 06008KT P6SM SCT040 BKN060=



000
FTUS41 KILN 020800 AAA
TAFLUK
TAF AMD
KLUK 020809Z 0208/0306 VRB03KT 6SM BR SCT045 OVC060
     FM021200 12005KT 6SM BR VCSH OVC045
     FM021500 13005KT 5SM -SHRA BR BKN028 OVC045
     FM030000 10005KT P6SM VCSH OVC028=



000
FTUS41 KILN 020800 AAA
TAFLUK
TAF AMD
KLUK 020809Z 0208/0306 VRB03KT 6SM BR SCT045 OVC060
     FM021200 12005KT 6SM BR VCSH OVC045
     FM021500 13005KT 5SM -SHRA BR BKN028 OVC045
     FM030000 10005KT P6SM VCSH OVC028=



000
FTUS41 KILN 020800 AAA
TAFDAY
TAF AMD
KDAY 020809Z 0208/0306 04004KT P6SM SCT040 BKN060
     FM021200 09006KT P6SM VCSH OVC040
     FM030000 06009KT P6SM OVC040=



000
FTUS41 KILN 020800 AAA
TAFILN
TAF AMD
KILN 020809Z 0208/0306 04004KT P6SM SCT040 BKN060
     FM021300 10006KT P6SM VCSH OVC040
     FM021800 10006KT P6SM -SHRA SCT025 OVC040
     FM030000 10006KT P6SM VCSH SCT025 OVC040
     FM030300 06008KT P6SM VCSH SCT025 OVC040=



000
FTUS41 KILN 020800 AAA
TAFDAY
TAF AMD
KDAY 020809Z 0208/0306 04004KT P6SM SCT040 BKN060
     FM021200 09006KT P6SM VCSH OVC040
     FM030000 06009KT P6SM OVC040=



000
FTUS41 KILN 020800 AAA
TAFILN
TAF AMD
KILN 020809Z 0208/0306 04004KT P6SM SCT040 BKN060
     FM021300 10006KT P6SM VCSH OVC040
     FM021800 10006KT P6SM -SHRA SCT025 OVC040
     FM030000 10006KT P6SM VCSH SCT025 OVC040
     FM030300 06008KT P6SM VCSH SCT025 OVC040=



    US Dept of Commerce
    National Oceanic and Atmospheric Administration
    National Weather Service
    1325 East West Highway
    Silver Spring, MD 20910
    Page Author: NWS Internet Services Team
Disclaimer
Information Quality
Credits
Glossary
Privacy Policy
Freedom of Information Act (FOIA)
About Us
Career Opportunities